Time;durP1;ratioP1;P1;durP2;ratioP2;P2;SDS_P1;SDS_P2;PMS_P1;PMS_P2;Temp;Humidity;BMP_temperature;BMP_pressure;BME280_temperature;BME280_humidity;BME280_pressure;Samples;Min_cycle;Max_cycle;Signal;HPM_P1;HPM_P2
2022/11/21 00:01:21;;;;;;;7.33;6.00;;;;;;;11.09;100.00;93352.78;5147809;27;20187;-79
2022/11/21 00:03:48;;;;;;;9.23;6.57;;;;;;;11.11;100.00;93379.34;5144986;27;20195;-80
2022/11/21 00:06:15;;;;;;;8.73;6.40;;;;;;;11.11;100.00;93363.72;5149100;27;20191;-79
2022/11/21 00:08:42;;;;;;;8.77;6.73;;;;;;;11.09;100.00;93366.56;5141356;27;20214;-79
2022/11/21 00:11:09;;;;;;;9.20;6.87;;;;;;;11.01;100.00;93353.25;5144120;27;20202;-79
2022/11/21 00:13:36;;;;;;;10.53;7.43;;;;;;;10.99;100.00;93361.34;5146125;27;20194;-80
2022/11/21 00:16:05;;;;;;;9.57;6.57;;;;;;;10.93;100.00;93351.16;5144553;27;20247;-79
2022/11/21 00:18:35;;;;;;;9.27;6.77;;;;;;;10.77;100.00;93339.88;5146189;27;20187;-79
2022/11/21 00:21:06;;;;;;;9.60;6.63;;;;;;;10.76;100.00;93336.50;5141678;27;20832;-80
2022/11/21 00:23:33;;;;;;;10.30;6.97;;;;;;;10.89;100.00;93343.06;5143682;27;20700;-78
2022/11/21 00:26:04;;;;;;;11.87;7.20;;;;;;;10.94;100.00;93347.53;5149828;27;20641;-85
2022/11/21 00:28:30;;;;;;;9.97;7.10;;;;;;;11.00;100.00;93357.69;5133287;27;20184;-84
2022/11/21 00:30:57;;;;;;;10.10;7.50;;;;;;;11.00;100.00;93349.88;5149751;27;20225;-84
2022/11/21 00:33:24;;;;;;;15.23;8.97;;;;;;;10.96;100.00;93327.25;5150563;27;20191;-84
2022/11/21 00:35:53;;;;;;;13.37;8.77;;;;;;;10.94;100.00;93329.34;5140942;27;20191;-79
2022/11/21 00:38:19;;;;;;;13.37;8.30;;;;;;;10.98;100.00;93318.16;5143850;27;20197;-78
2022/11/21 00:40:46;;;;;;;14.00;9.40;;;;;;;11.02;100.00;93321.06;5150379;27;20592;-84
2022/11/21 00:43:13;;;;;;;12.53;8.73;;;;;;;10.98;100.00;93325.97;5140901;27;20199;-84
2022/11/21 00:45:40;;;;;;;11.30;7.80;;;;;;;10.98;100.00;93317.38;5133460;27;20198;-84
2022/11/21 00:48:07;;;;;;;10.07;7.63;;;;;;;11.01;100.00;93303.88;5133296;27;20196;-83
2022/11/21 00:50:34;;;;;;;12.80;7.23;;;;;;;10.97;100.00;93290.59;5136164;27;20211;-84
2022/11/21 00:53:02;;;;;;;9.40;6.80;;;;;;;10.99;100.00;93291.16;5150126;27;20571;-84
2022/11/21 00:55:29;;;;;;;10.00;6.23;;;;;;;10.90;100.00;93286.69;5153945;27;20198;-83
2022/11/21 00:57:56;;;;;;;13.67;7.13;;;;;;;11.02;100.00;93302.84;5139966;27;20214;-83
2022/11/21 01:00:23;;;;;;;11.03;6.50;;;;;;;10.97;100.00;93297.59;5133899;27;20194;-86
2022/11/21 01:02:49;;;;;;;10.23;6.63;;;;;;;10.93;100.00;93297.34;5134038;27;20225;-85
2022/11/21 01:05:16;;;;;;;10.90;7.33;;;;;;;10.97;100.00;93305.41;5138809;27;20252;-84
2022/11/21 01:07:43;;;;;;;15.93;9.00;;;;;;;10.87;100.00;93290.56;5154750;27;20206;-85
2022/11/21 01:10:11;;;;;;;15.80;7.33;;;;;;;10.70;100.00;93275.16;5153834;27;20215;-85
2022/11/21 01:12:38;;;;;;;11.20;7.27;;;;;;;10.83;100.00;93281.69;5147994;27;20190;-78
2022/11/21 01:15:06;;;;;;;10.37;6.80;;;;;;;10.81;100.00;93286.38;5140453;27;20217;-78
2022/11/21 01:17:33;;;;;;;12.03;7.30;;;;;;;10.76;100.00;93309.75;5143224;27;20187;-78
2022/11/21 01:20:00;;;;;;;9.93;7.20;;;;;;;10.70;100.00;93266.59;5140705;27;20188;-79
2022/11/21 01:22:27;;;;;;;12.13;8.03;;;;;;;10.48;100.00;93277.09;5142877;27;20191;-78
2022/11/21 01:24:54;;;;;;;12.97;8.73;;;;;;;10.57;100.00;93298.19;5137599;27;20219;-78
2022/11/21 01:27:22;;;;;;;12.73;8.93;;;;;;;10.60;100.00;93305.47;5139921;27;20649;-78
2022/11/21 01:29:51;;;;;;;11.50;8.80;;;;;;;10.62;100.00;93293.81;5144203;27;20662;-78
2022/11/21 01:32:31;;;;;;;14.27;9.77;;;;;;;10.62;100.00;93298.25;5144563;27;20225;-83
2022/11/21 01:34:59;;;;;;;15.13;9.90;;;;;;;10.60;100.00;93292.50;5135301;27;20256;-83
2022/11/21 01:37:25;;;;;;;12.03;9.20;;;;;;;10.58;100.00;93294.56;5139953;27;20187;-84
2022/11/21 01:39:52;;;;;;;13.43;9.63;;;;;;;10.64;100.00;93268.38;5149329;27;20194;-77
2022/11/21 01:42:19;;;;;;;15.83;9.90;;;;;;;10.58;100.00;93271.97;5146264;27;20194;-79
2022/11/21 01:44:50;;;;;;;13.17;9.37;;;;;;;10.62;100.00;93267.06;5143850;27;20684;-78
2022/11/21 01:47:17;;;;;;;15.67;10.00;;;;;;;10.60;100.00;93275.09;5144454;27;20205;-79
2022/11/21 01:49:45;;;;;;;17.37;10.57;;;;;;;10.63;100.00;93266.00;5142170;27;20630;-79
2022/11/21 01:52:17;;;;;;;16.17;9.70;;;;;;;10.47;100.00;93261.78;5145044;27;20202;-78
2022/11/21 01:54:47;;;;;;;13.60;9.67;;;;;;;10.57;100.00;93273.00;5147019;27;20202;-78
2022/11/21 01:57:17;;;;;;;14.90;10.10;;;;;;;10.52;100.00;93257.41;5150211;27;20186;-78
2022/11/21 01:59:49;;;;;;;14.33;9.00;;;;;;;10.43;100.00;93245.13;5146842;27;20190;-78
2022/11/21 02:02:20;;;;;;;15.30;9.60;;;;;;;10.46;100.00;93260.19;5147147;27;20184;-79
2022/11/21 02:04:48;;;;;;;15.13;9.10;;;;;;;10.57;100.00;93267.00;5149628;27;20637;-85
2022/11/21 02:07:17;;;;;;;14.27;9.30;;;;;;;10.46;100.00;93262.81;5135786;27;20206;-86
2022/11/21 02:09:49;;;;;;;14.47;9.03;;;;;;;10.54;100.00;93270.91;5141558;27;20211;-79
2022/11/21 02:12:22;;;;;;;12.07;9.10;;;;;;;10.52;100.00;93260.00;5142710;27;20189;-79
2022/11/21 02:14:51;;;;;;;15.03;9.27;;;;;;;10.56;100.00;93261.03;5141961;27;20235;-79
2022/11/21 02:17:18;;;;;;;12.23;8.90;;;;;;;10.60;100.00;93267.31;5147241;27;20661;-79
2022/11/21 02:19:54;;;;;;;12.73;8.60;;;;;;;10.64;100.00;93270.19;5139272;27;20202;-80
2022/11/21 02:22:31;;;;;;;11.87;9.00;;;;;;;10.71;100.00;93255.13;5150509;27;20190;-79
2022/11/21 02:25:05;;;;;;;10.33;8.40;;;;;;;10.75;100.00;93266.59;5146498;27;20772;-78
2022/11/21 02:27:33;;;;;;;10.63;8.17;;;;;;;10.71;100.00;93268.13;5142061;27;20661;-78
2022/11/21 02:30:01;;;;;;;13.00;8.90;;;;;;;10.70;100.00;93261.38;5144399;27;20195;-78
2022/11/21 02:32:33;;;;;;;14.10;8.47;;;;;;;10.73;100.00;93258.28;5143956;27;20191;-77
2022/11/21 02:35:00;;;;;;;11.50;8.13;;;;;;;10.73;100.00;93268.69;5146838;27;20641;-79
2022/11/21 02:37:28;;;;;;;11.17;7.83;;;;;;;10.62;100.00;93261.88;5143956;27;20571;-79
2022/11/21 02:39:58;;;;;;;12.00;9.27;;;;;;;10.71;100.00;93270.72;5143958;27;20681;-78
2022/11/21 02:42:31;;;;;;;11.07;8.30;;;;;;;10.78;100.00;93269.47;5145994;27;20574;-78
2022/11/21 02:45:12;;;;;;;13.83;8.47;;;;;;;10.80;100.00;93267.41;5145517;27;20243;-80
2022/11/21 02:47:40;;;;;;;11.00;8.03;;;;;;;10.87;100.00;93258.59;5140695;27;20175;-79
2022/11/21 02:50:13;;;;;;;13.30;8.43;;;;;;;10.88;100.00;93244.56;5146491;27;20634;-78
2022/11/21 02:52:40;;;;;;;11.10;8.10;;;;;;;10.77;100.00;93257.50;5142598;27;20595;-79
2022/11/21 02:55:08;;;;;;;10.70;7.10;;;;;;;10.84;100.00;93249.50;5143970;27;20976;-79
2022/11/21 02:57:36;;;;;;;13.23;7.20;;;;;;;10.84;100.00;93223.50;5145201;27;20217;-80
2022/11/21 03:00:04;;;;;;;11.57;7.60;;;;;;;10.74;100.00;93218.25;5142580;27;20191;-79
2022/11/21 03:02:31;;;;;;;10.87;6.80;;;;;;;10.79;100.00;93193.06;5146016;27;20183;-80
2022/11/21 03:04:58;;;;;;;8.10;5.90;;;;;;;10.71;100.00;93216.94;5144877;27;20206;-80
2022/11/21 03:07:24;;;;;;;12.70;6.53;;;;;;;10.75;100.00;93204.25;5143523;27;20190;-82
2022/11/21 03:09:51;;;;;;;23.77;6.73;;;;;;;10.87;100.00;93209.22;5152447;27;20195;-81
2022/11/21 03:12:18;;;;;;;10.20;6.87;;;;;;;10.90;100.00;93193.91;5134810;27;20219;-83
2022/11/21 03:14:46;;;;;;;12.43;6.33;;;;;;;10.87;100.00;93184.03;5146389;27;20190;-82
2022/11/21 03:17:13;;;;;;;13.07;6.73;;;;;;;10.98;100.00;93208.22;5142813;27;20192;-82
2022/11/21 03:19:40;;;;;;;8.90;6.77;;;;;;;10.95;100.00;93201.72;5137222;27;20200;-86
2022/11/21 03:22:07;;;;;;;10.90;6.70;;;;;;;10.91;100.00;93195.44;5136874;27;20195;-87
2022/11/21 03:24:34;;;;;;;12.03;6.80;;;;;;;10.92;100.00;93220.41;5138827;27;20223;-88
2022/11/21 03:27:01;;;;;;;7.53;5.23;;;;;;;10.99;100.00;93220.19;5135545;27;20586;-87
2022/11/21 03:29:28;;;;;;;10.53;5.80;;;;;;;10.99;100.00;93215.78;5135466;27;20640;-89
2022/11/21 03:31:56;;;;;;;10.07;5.63;;;;;;;10.95;100.00;93199.09;5146902;27;20275;-88
2022/11/21 03:34:23;;;;;;;9.77;5.27;;;;;;;11.07;100.00;93199.66;5156940;27;20191;-89
2022/11/21 03:36:50;;;;;;;8.70;5.03;;;;;;;11.10;100.00;93206.16;5156493;27;20296;-89
2022/11/21 03:39:17;;;;;;;7.50;5.30;;;;;;;11.13;100.00;93205.66;5155145;27;20187;-88
2022/11/21 03:41:44;;;;;;;9.97;4.90;;;;;;;11.10;100.00;93214.75;5165828;27;20193;-83
2022/11/21 03:44:12;;;;;;;12.47;5.13;;;;;;;11.05;100.00;93204.34;5158148;27;20187;-83
2022/11/21 03:46:41;;;;;;;7.87;4.60;;;;;;;11.15;100.00;93193.97;5163148;27;20199;-83
2022/11/21 03:49:10;;;;;;;11.47;4.80;;;;;;;11.17;100.00;93193.69;5153035;27;20186;-84
2022/11/21 03:51:37;;;;;;;8.23;4.70;;;;;;;11.03;100.00;93188.22;5157586;27;20218;-83
2022/11/21 03:54:05;;;;;;;8.80;4.30;;;;;;;11.15;100.00;93193.97;5162035;27;20567;-77
2022/11/21 03:56:32;;;;;;;9.10;3.87;;;;;;;11.14;100.00;93195.00;5144261;27;20183;-77
2022/11/21 03:58:59;;;;;;;8.90;4.63;;;;;;;11.17;100.00;93191.09;5143565;27;20183;-78
2022/11/21 04:01:26;;;;;;;8.27;3.63;;;;;;;11.16;100.00;93187.72;5144173;27;20187;-78
2022/11/21 04:03:54;;;;;;;5.77;3.40;;;;;;;11.13;100.00;93164.84;5142092;27;20229;-80
2022/11/21 04:06:22;;;;;;;8.80;4.37;;;;;;;11.37;100.00;93183.31;5148691;27;20187;-86
2022/11/21 04:08:50;;;;;;;7.80;3.20;;;;;;;11.28;100.00;93166.69;5139836;27;20202;-86
2022/11/21 04:11:17;;;;;;;10.13;3.57;;;;;;;11.33;100.00;93179.69;5154889;27;20219;-85
2022/11/21 04:13:44;;;;;;;5.10;3.40;;;;;;;11.36;100.00;93179.97;5146003;27;20459;-85
2022/11/21 04:16:11;;;;;;;10.83;3.87;;;;;;;11.40;100.00;93157.59;5148535;27;20195;-80
2022/11/21 04:18:38;;;;;;;8.20;3.57;;;;;;;11.42;100.00;93164.34;5150614;27;20203;-84
2022/11/21 04:21:07;;;;;;;7.83;3.13;;;;;;;11.40;100.00;93159.41;5136484;27;20202;-83
2022/11/21 04:23:36;;;;;;;8.07;2.93;;;;;;;11.55;100.00;93143.00;5133673;27;20187;-84
2022/11/21 04:26:03;;;;;;;5.90;2.57;;;;;;;11.70;100.00;93177.66;5133752;27;20199;-84
2022/11/21 04:28:30;;;;;;;9.87;2.90;;;;;;;11.81;100.00;93179.22;5133446;27;20628;-85
2022/11/21 04:31:02;;;;;;;10.03;3.17;;;;;;;11.87;100.00;93185.19;5133212;27;20653;-86
2022/11/21 04:33:30;;;;;;;7.70;3.00;;;;;;;11.81;100.00;93181.03;5134547;27;20179;-86
2022/11/21 04:35:57;;;;;;;4.83;3.17;;;;;;;11.84;100.00;93167.50;5151393;27;20188;-85
2022/11/21 04:38:24;;;;;;;7.20;2.53;;;;;;;11.88;100.00;93182.34;5150350;27;20203;-78
2022/11/21 04:40:52;;;;;;;7.33;3.10;;;;;;;11.98;100.00;93185.97;5141753;27;20183;-79
2022/11/21 04:43:19;;;;;;;8.90;3.30;;;;;;;12.13;100.00;93204.94;5144350;27;20252;-80
2022/11/21 04:45:45;;;;;;;9.77;3.00;;;;;;;12.11;100.00;93181.00;5138088;27;20676;-80
2022/11/21 04:48:12;;;;;;;7.43;2.53;;;;;;;12.06;100.00;93168.00;5143624;27;20190;-79
2022/11/21 04:50:39;;;;;;;6.97;2.40;;;;;;;12.10;100.00;93184.63;5135155;27;20247;-85
2022/11/21 04:53:06;;;;;;;6.77;3.30;;;;;;;12.08;100.00;93189.34;5147453;27;20190;-86
2022/11/21 04:55:33;;;;;;;5.23;2.70;;;;;;;12.15;100.00;93191.69;5151985;27;20202;-80
2022/11/21 04:58:01;;;;;;;7.30;3.07;;;;;;;12.10;100.00;93189.06;5140520;27;20186;-80
2022/11/21 05:00:28;;;;;;;6.53;2.57;;;;;;;12.09;100.00;93201.28;5143256;27;20187;-79
2022/11/21 05:02:55;;;;;;;5.93;2.50;;;;;;;11.90;100.00;93192.47;5142479;27;20580;-80
2022/11/21 05:05:22;;;;;;;4.93;2.50;;;;;;;11.69;100.00;93209.91;5139892;27;20183;-80
2022/11/21 05:07:48;;;;;;;4.10;2.20;;;;;;;11.60;100.00;93211.44;5140681;27;20228;-83
2022/11/21 05:10:15;;;;;;;7.60;2.10;;;;;;;11.53;100.00;93217.94;5142509;27;20178;-76
2022/11/21 05:15:27;;;;;;;5.63;1.93;;;;;;;11.20;100.00;93232.19;5143090;27;20186;-77
2022/11/21 05:17:54;;;;;;;2.43;1.80;;;;;;;11.19;100.00;93246.25;5145129;27;20194;-77
2022/11/21 05:20:21;;;;;;;4.67;1.77;;;;;;;11.06;100.00;93249.31;5145394;27;20255;-78
2022/11/21 05:22:51;;;;;;;3.13;1.63;;;;;;;10.96;100.00;93246.69;5138516;27;20186;-78
2022/11/21 05:25:18;;;;;;;1.93;1.63;;;;;;;10.75;100.00;93245.81;5145347;27;20219;-79
2022/11/21 05:27:45;;;;;;;2.73;1.63;;;;;;;10.69;100.00;93278.00;5141232;27;20638;-77
2022/11/21 05:30:12;;;;;;;5.93;2.10;;;;;;;10.50;100.00;93269.06;5139379;27;20194;-78
2022/11/21 05:32:40;;;;;;;5.87;1.83;;;;;;;10.20;100.00;93280.81;5139575;27;20593;-78
2022/11/21 05:35:08;;;;;;;3.77;1.50;;;;;;;10.12;100.00;93298.63;5146878;27;20197;-79
2022/11/21 05:37:35;;;;;;;2.23;1.40;;;;;;;9.95;100.00;93285.00;5136078;27;20230;-78
2022/11/21 05:40:14;;;;;;;4.90;2.17;;;;;;;9.75;100.00;93293.41;5141730;27;20593;-78
2022/11/21 05:45:27;;;;;;;5.03;2.93;;;;;;;9.31;100.00;93313.44;5142381;27;20213;-77
2022/11/21 05:47:55;;;;;;;1.83;1.57;;;;;;;9.19;100.00;93310.19;5141192;27;20206;-77
2022/11/21 05:50:22;;;;;;;2.40;1.50;;;;;;;8.99;100.00;93308.16;5138200;27;20202;-78
2022/11/21 05:52:52;;;;;;;1.70;1.30;;;;;;;8.77;100.00;93319.53;5140122;27;20214;-78
2022/11/21 05:55:19;;;;;;;1.37;1.27;;;;;;;8.50;100.00;93322.03;5142535;27;20188;-78
2022/11/21 05:57:45;;;;;;;1.57;1.10;;;;;;;8.58;100.00;93342.31;5141268;27;20225;-78
2022/11/21 06:00:13;;;;;;;3.00;1.40;;;;;;;8.40;100.00;93342.56;5139843;27;20191;-80
2022/11/21 06:05:26;;;;;;;1.70;1.30;;;;;;;8.04;100.00;93354.16;5136592;27;20194;-79
2022/11/21 06:07:52;;;;;;;1.33;1.23;;;;;;;7.85;100.00;93366.50;5139388;27;20202;-79
2022/11/21 06:10:19;;;;;;;1.50;1.40;;;;;;;7.72;100.00;93347.91;5142166;27;20202;-77
2022/11/21 06:12:46;;;;;;;4.27;1.40;;;;;;;7.83;100.00;93360.00;5141397;27;20255;-77
2022/11/21 06:15:13;;;;;;;1.30;1.20;;;;;;;7.74;100.00;93363.97;5138552;27;20755;-76
2022/11/21 06:17:40;;;;;;;3.33;1.30;;;;;;;7.64;100.00;93374.16;5078526;27;20191;-79
2022/11/21 06:20:08;;;;;;;1.70;1.50;;;;;;;7.50;100.00;93370.28;5116084;27;20192;-79
2022/11/21 06:22:37;;;;;;;1.60;1.50;;;;;;;7.57;100.00;93363.16;5133235;27;20836;-78
2022/11/21 06:25:04;;;;;;;1.40;1.30;;;;;;;7.52;100.00;93383.75;5133325;27;20229;-77
2022/11/21 06:27:30;;;;;;;1.63;1.40;;;;;;;7.49;100.00;93382.41;5130118;27;20204;-78
2022/11/21 06:29:57;;;;;;;1.30;1.20;;;;;;;7.33;100.00;93394.25;5130586;27;20248;-78
2022/11/21 06:32:24;;;;;;;2.27;1.20;;;;;;;7.24;100.00;93395.59;5131857;27;21719;-77
2022/11/21 06:34:51;;;;;;;1.80;1.23;;;;;;;7.15;100.00;93409.13;5133387;27;20665;-79
2022/11/21 06:37:18;;;;;;;1.73;1.20;;;;;;;7.13;100.00;93398.25;5131810;27;20646;-77
2022/11/21 06:39:46;;;;;;;1.20;1.10;;;;;;;7.02;100.00;93415.31;5132752;27;20200;-76
2022/11/21 06:42:12;;;;;;;2.87;1.30;;;;;;;6.97;100.00;93415.22;5133388;27;20195;-76
2022/11/21 06:44:39;;;;;;;1.67;1.20;;;;;;;6.89;100.00;93419.94;5130476;27;20211;-75
2022/11/21 06:47:06;;;;;;;1.20;1.10;;;;;;;6.83;100.00;93431.94;5130399;27;20196;-76
2022/11/21 06:49:33;;;;;;;2.10;1.40;;;;;;;6.78;100.00;93430.03;5131582;27;20252;-76
2022/11/21 06:51:59;;;;;;;1.50;1.27;;;;;;;6.80;100.00;93453.06;5131500;27;20226;-77
2022/11/21 06:54:26;;;;;;;3.60;1.40;;;;;;;6.84;100.00;93467.06;5130552;27;20260;-75
2022/11/21 06:56:54;;;;;;;2.50;1.40;;;;;;;6.93;100.00;93478.63;5131014;27;20202;-76
2022/11/21 06:59:21;;;;;;;1.83;1.50;;;;;;;6.69;100.00;93474.50;5131455;27;20198;-76
2022/11/21 07:01:48;;;;;;;1.77;1.53;;;;;;;6.64;100.00;93503.53;5133669;27;20206;-77
2022/11/21 07:04:15;;;;;;;3.53;1.50;;;;;;;6.53;100.00;93480.28;5139651;27;20648;-80
2022/11/21 07:06:42;;;;;;;1.70;1.60;;;;;;;6.64;100.00;93502.75;5139210;27;20199;-79
2022/11/21 07:09:09;;;;;;;1.80;1.53;;;;;;;6.59;100.00;93506.00;5141840;27;20195;-77
2022/11/21 07:11:35;;;;;;;4.70;1.80;;;;;;;6.62;100.00;93523.63;5131674;27;20287;-77
2022/11/21 07:14:04;;;;;;;2.07;1.60;;;;;;;6.71;100.00;93534.41;5130628;27;20726;-76
2022/11/21 07:16:31;;;;;;;3.90;1.90;;;;;;;6.58;100.00;93514.75;5129012;27;20253;-76
2022/11/21 07:18:59;;;;;;;7.17;2.10;;;;;;;6.68;100.00;93519.38;5132909;27;20247;-77
2022/11/21 07:21:26;;;;;;;2.37;1.80;;;;;;;6.61;100.00;93532.38;5130767;27;20675;-76
2022/11/21 07:23:53;;;;;;;4.20;2.13;;;;;;;6.47;100.00;93530.19;5130733;27;20231;-76
2022/11/21 07:26:19;;;;;;;3.60;2.10;;;;;;;6.29;100.00;93544.72;5130908;27;20207;-76
2022/11/21 07:28:46;;;;;;;6.53;2.93;;;;;;;6.29;100.00;93549.13;5132677;27;20191;-76
2022/11/21 07:31:14;;;;;;;2.90;2.10;;;;;;;6.16;100.00;93544.91;5106564;27;20212;-81
2022/11/21 07:33:43;;;;;;;4.13;2.50;;;;;;;6.19;100.00;93557.38;5048851;27;20201;-81
2022/11/21 07:36:10;;;;;;;6.10;3.30;;;;;;;6.16;100.00;93549.28;5128851;27;20199;-80
2022/11/21 07:38:36;;;;;;;5.27;3.20;;;;;;;6.09;100.00;93564.06;5117629;27;21469;-80
2022/11/21 07:41:03;;;;;;;9.43;6.17;;;;;;;5.95;100.00;93578.88;5138819;27;20199;-79
2022/11/21 07:43:30;;;;;;;10.23;7.73;;;;;;;5.99;100.00;93589.56;5137013;27;20193;-79
2022/11/21 07:45:57;;;;;;;13.50;7.67;;;;;;;5.92;100.00;93561.25;5144516;27;20198;-79
2022/11/21 07:48:25;;;;;;;7.90;6.30;;;;;;;6.01;100.00;93588.31;5145494;27;20201;-79
2022/11/21 07:50:52;;;;;;;5.07;4.07;;;;;;;5.95;100.00;93596.91;5115255;27;20202;-79
2022/11/21 07:53:27;;;;;;;5.07;3.40;;;;;;;5.98;100.00;93586.19;5128953;27;20225;-81
2022/11/21 07:55:54;;;;;;;2.83;2.27;;;;;;;6.05;100.00;93606.75;5142278;27;20199;-80
2022/11/21 07:58:21;;;;;;;2.60;2.03;;;;;;;6.05;100.00;93606.75;5142249;27;20206;-80
2022/11/21 08:00:48;;;;;;;2.87;2.03;;;;;;;6.09;100.00;93615.63;5140319;27;20207;-79
2022/11/21 08:03:15;;;;;;;2.60;2.00;;;;;;;6.10;100.00;93619.75;5141654;27;20294;-80
2022/11/21 08:05:44;;;;;;;2.73;1.97;;;;;;;6.07;100.00;93618.41;5141730;27;20944;-79
2022/11/21 08:08:13;;;;;;;2.33;1.90;;;;;;;6.12;100.00;93626.28;5144011;27;20186;-79
2022/11/21 08:10:42;;;;;;;3.30;2.00;;;;;;;6.11;100.00;93631.66;5146766;27;20190;-79
2022/11/21 08:13:09;;;;;;;5.57;2.00;;;;;;;6.10;100.00;93620.56;5137601;27;20226;-79
2022/11/21 08:15:37;;;;;;;2.13;1.83;;;;;;;6.25;100.00;93638.25;5138912;27;20273;-78
2022/11/21 08:18:11;;;;;;;3.00;2.20;;;;;;;6.21;100.00;93658.53;5140036;27;20240;-78
2022/11/21 08:20:46;;;;;;;3.50;1.90;;;;;;;6.15;100.00;93649.06;5141033;27;20227;-80
2022/11/21 08:23:18;;;;;;;1.73;1.63;;;;;;;6.36;100.00;93670.25;5148050;27;20185;-80
2022/11/21 08:25:47;;;;;;;3.03;2.43;;;;;;;6.44;100.00;93673.34;5135637;27;20234;-76
2022/11/21 08:28:14;;;;;;;2.63;2.10;;;;;;;6.30;100.00;93674.50;5135042;27;20228;-78
2022/11/21 08:30:41;;;;;;;2.60;1.60;;;;;;;6.31;100.00;93678.66;5134255;27;20208;-77
2022/11/21 08:33:08;;;;;;;2.00;1.50;;;;;;;6.33;100.00;93675.84;5144841;27;20577;-78
2022/11/21 08:35:37;;;;;;;5.63;1.70;;;;;;;6.47;100.00;93687.59;5137172;27;20547;-77
2022/11/21 08:38:06;;;;;;;1.47;1.37;;;;;;;6.37;100.00;93682.97;5139405;27;20232;-77
2022/11/21 08:40:34;;;;;;;1.80;1.30;;;;;;;6.40;100.00;93686.91;5137435;27;20201;-77
2022/11/21 08:43:03;;;;;;;1.50;1.40;;;;;;;6.34;100.00;93691.13;5149168;27;20185;-78
2022/11/21 08:45:30;;;;;;;3.53;2.10;;;;;;;6.33;100.00;93686.97;5131882;27;20190;-76
2022/11/21 08:47:57;;;;;;;3.00;2.70;;;;;;;6.48;100.00;93689.19;5137372;27;20187;-77
2022/11/21 08:50:25;;;;;;;2.90;2.00;;;;;;;6.52;100.00;93675.63;5138427;27;20190;-75
2022/11/21 08:52:52;;;;;;;1.70;1.60;;;;;;;6.52;100.00;93672.28;5135898;27;20208;-79
2022/11/21 08:55:21;;;;;;;1.83;1.50;;;;;;;6.51;100.00;93679.22;5140196;27;20656;-79
2022/11/21 08:57:48;;;;;;;1.93;1.80;;;;;;;6.64;100.00;93681.63;5139557;27;20194;-78
2022/11/21 09:00:16;;;;;;;1.90;1.70;;;;;;;6.71;100.00;93676.38;5136533;27;20191;-77
2022/11/21 09:02:43;;;;;;;2.27;1.73;;;;;;;6.64;100.00;93650.66;5140073;27;20195;-82
2022/11/21 09:05:10;;;;;;;3.87;1.60;;;;;;;6.78;100.00;93674.53;5139181;27;20416;-78
2022/11/21 09:07:37;;;;;;;3.33;1.50;;;;;;;6.61;100.00;93669.16;5144470;27;20191;-78
2022/11/21 09:10:05;;;;;;;1.50;1.40;;;;;;;6.82;100.00;93685.97;5139906;27;20198;-79
2022/11/21 09:12:33;;;;;;;1.90;1.60;;;;;;;6.80;100.00;93685.41;5141536;27;20218;-79
2022/11/21 09:20:28;;;;;;;1.50;1.40;;;;;;;6.73;100.00;93710.50;5136824;27;20244;-79
2022/11/21 09:22:55;;;;;;;3.80;1.47;;;;;;;6.56;100.00;93705.16;5143880;27;20194;-79
2022/11/21 09:25:22;;;;;;;2.63;1.80;;;;;;;6.41;100.00;93697.00;5138031;27;20698;-79
2022/11/21 09:27:50;;;;;;;1.70;1.60;;;;;;;6.30;100.00;93702.88;5140896;27;20195;-78
2022/11/21 09:30:17;;;;;;;3.00;1.60;;;;;;;6.13;100.00;93674.28;5140934;27;20195;-77
2022/11/21 09:32:44;;;;;;;2.13;1.80;;;;;;;6.23;100.00;93700.34;5143138;27;20210;-78
2022/11/21 09:35:11;;;;;;;2.00;1.90;;;;;;;6.29;100.00;93706.47;5138229;27;20194;-78
2022/11/21 09:37:39;;;;;;;1.87;1.50;;;;;;;6.18;100.00;93692.47;5139645;27;20194;-80
2022/11/21 09:40:07;;;;;;;1.70;1.60;;;;;;;6.27;100.00;93708.47;5141846;27;20289;-78
2022/11/21 09:43:14;;;;;;;1.83;1.73;;;;;;;6.23;100.00;93704.75;5139344;27;20202;-79
2022/11/21 09:45:47;;;;;;;4.77;2.50;;;;;;;6.30;100.00;93695.13;5122676;27;20296;-83
2022/11/21 09:48:21;;;;;;;16.77;3.47;;;;;;;6.18;100.00;93697.63;5140542;27;20198;-81
2022/11/21 09:50:52;;;;;;;2.07;1.80;;;;;;;6.14;100.00;93696.50;5147479;27;20186;-81
2022/11/21 09:53:22;;;;;;;3.60;1.80;;;;;;;6.11;100.00;93706.47;5139572;27;20829;-82
2022/11/21 09:55:52;;;;;;;3.17;2.00;;;;;;;6.07;100.00;93711.25;5136806;27;20257;-81
2022/11/21 09:58:26;;;;;;;2.50;2.30;;;;;;;6.08;100.00;93718.00;5155392;27;20657;-81
2022/11/21 10:00:53;;;;;;;3.97;2.90;;;;;;;6.14;100.00;93721.50;5146467;27;20198;-80
2022/11/21 10:03:24;;;;;;;8.60;5.67;;;;;;;6.13;100.00;93718.13;5137451;27;20285;-81
2022/11/21 10:05:55;;;;;;;5.70;4.37;;;;;;;6.10;100.00;93720.34;5139706;27;20206;-80
2022/11/21 10:08:30;;;;;;;7.30;3.70;;;;;;;6.11;100.00;93724.50;5130052;27;20245;-80
2022/11/21 10:11:05;;;;;;;5.73;3.80;;;;;;;6.05;100.00;93738.25;5137224;27;20285;-77
2022/11/21 10:13:44;;;;;;;5.20;3.27;;;;;;;6.02;100.00;93726.56;5137303;27;20769;-78
2022/11/21 10:16:19;;;;;;;5.97;3.60;;;;;;;6.12;100.00;93726.06;5136311;27;20205;-78
2022/11/21 10:19:14;;;;;;;3.40;3.00;;;;;;;6.02;100.00;93726.56;5134981;27;20197;-79
2022/11/21 10:22:08;;;;;;;3.17;2.77;;;;;;;6.09;100.00;93729.88;5139018;27;20202;-81
2022/11/21 10:24:44;;;;;;;3.93;3.03;;;;;;;6.13;100.00;93730.22;5142156;27;20609;-81
2022/11/21 10:27:16;;;;;;;3.00;2.70;;;;;;;6.22;100.00;93732.34;5147003;27;20192;-81
2022/11/21 10:29:52;;;;;;;6.10;3.13;;;;;;;6.12;100.00;93739.75;5145888;27;20202;-83
2022/11/21 10:32:24;;;;;;;4.40;4.00;;;;;;;6.17;100.00;93742.50;5133107;27;20229;-78
2022/11/21 10:34:53;;;;;;;4.20;3.70;;;;;;;6.28;100.00;93731.47;5135438;27;20229;-78
2022/11/21 10:37:38;;;;;;;4.57;3.77;;;;;;;6.48;100.00;93733.03;5133591;27;20235;-79
2022/11/21 10:40:19;;;;;;;4.00;3.60;;;;;;;6.54;100.00;93735.56;5135130;27;20193;-79
2022/11/21 10:42:53;;;;;;;3.43;3.13;;;;;;;6.48;100.00;93744.16;5136887;27;20217;-83
2022/11/21 10:45:21;;;;;;;3.10;2.80;;;;;;;6.29;100.00;93745.16;5139114;27;20356;-84
2022/11/21 10:47:50;;;;;;;7.93;3.17;;;;;;;6.34;100.00;93747.09;5137048;27;20209;-83
2022/11/21 10:50:32;;;;;;;7.00;3.10;;;;;;;6.32;100.00;93747.28;5140136;27;20194;-83
2022/11/21 10:54:31;;;;;;;8.50;2.93;;;;;;;6.26;100.00;93746.38;5146098;27;20211;-82
2022/11/21 10:56:06;;;;;;;5.57;2.90;;;;;;;6.09;100.00;93747.16;5148058;27;20245;-83
2022/11/21 10:58:45;;;;;;;3.27;2.70;;;;;;;6.17;100.00;93739.94;5140748;27;20280;-83
2022/11/21 11:01:25;;;;;;;3.33;2.70;;;;;;;6.23;100.00;93743.44;5140748;27;20208;-83
2022/11/21 11:04:17;;;;;;;4.03;3.07;;;;;;;6.22;100.00;93747.00;5136948;27;21426;-82
2022/11/21 11:06:45;;;;;;;3.87;3.17;;;;;;;6.43;100.00;93751.78;5135658;27;20187;-82
2022/11/21 11:09:28;;;;;;;5.10;3.10;;;;;;;6.47;100.00;93758.06;5142324;27;20234;-83
2022/11/21 11:15:17;;;;;;;4.13;3.00;;;;;;;6.63;100.00;93747.19;5136969;27;20209;-83
2022/11/21 11:17:51;;;;;;;4.63;3.40;;;;;;;6.64;100.00;93750.53;5138927;27;20198;-83
2022/11/21 11:20:35;;;;;;;4.20;3.23;;;;;;;6.80;100.00;93749.97;5134511;27;20203;-82
2022/11/21 11:23:16;;;;;;;3.83;3.43;;;;;;;6.85;100.00;93744.94;5141369;27;20712;-84
2022/11/21 11:25:47;;;;;;;4.53;3.30;;;;;;;6.81;100.00;93741.22;5138950;27;20230;-83
2022/11/21 11:28:14;;;;;;;3.83;3.10;;;;;;;6.65;100.00;93742.59;5134752;27;20615;-84
2022/11/21 11:30:41;;;;;;;3.80;3.03;;;;;;;6.41;100.00;93730.53;5140702;27;20680;-84
2022/11/21 11:33:31;;;;;;;3.87;3.07;;;;;;;6.43;100.00;93743.25;5136879;27;20711;-82
2022/11/21 11:36:13;;;;;;;6.27;3.00;;;;;;;6.53;100.00;93743.50;5136642;27;20280;-83
2022/11/21 11:38:43;;;;;;;6.87;3.40;;;;;;;6.55;100.00;93736.34;5137805;27;20194;-82
2022/11/21 11:41:20;;;;;;;3.67;2.90;;;;;;;6.55;100.00;93734.53;5141563;27;20190;-82
2022/11/21 11:52:34;;;;;;;4.73;3.27;;;;;;;6.37;100.00;93741.50;5135945;27;20626;-78
2022/11/21 11:55:05;;;;;;;4.60;3.33;;;;;;;6.47;100.00;93736.63;5134059;27;20194;-78
2022/11/21 11:57:35;;;;;;;3.83;3.30;;;;;;;6.38;100.00;93714.72;5131673;27;20191;-78
2022/11/21 12:00:18;;;;;;;4.37;3.10;;;;;;;6.41;100.00;93738.28;5131321;27;20195;-84
2022/11/21 12:02:52;;;;;;;4.47;3.30;;;;;;;6.48;100.00;93735.63;5135413;27;20202;-82